Time;durP1;ratioP1;P1;durP2;ratioP2;P2;SDS_P1;SDS_P2;PMS_P1;PMS_P2;Temp;Humidity;BMP_temperature;BMP_pressure;BME280_temperature;BME280_humidity;BME280_pressure;Samples;Min_cycle;Max_cycle;Signal;HPM_P1;HPM_P2
2021/04/09 00:00:54;;;;;;;9.73;4.93;;;3.80;99.90;;;;;;5036724;28;20039;-78
2021/04/09 00:03:20;;;;;;;12.13;6.22;;;3.70;99.90;;;;;;5046831;28;20021;-78
2021/04/09 00:06:08;;;;;;;13.70;6.60;;;3.70;99.90;;;;;;5030763;28;20385;-78
2021/04/09 00:08:34;;;;;;;15.30;8.20;;;3.70;99.90;;;;;;4965214;28;20105;-77
2021/04/09 00:11:00;;;;;;;13.05;7.47;;;3.80;99.90;;;;;;4966638;28;20074;-78
2021/04/09 00:13:25;;;;;;;15.40;7.05;;;3.80;99.90;;;;;;4983753;28;20039;-77
2021/04/09 00:15:51;;;;;;;11.05;7.20;;;3.80;99.90;;;;;;4983606;28;20053;-78
2021/04/09 00:18:16;;;;;;;10.85;6.32;;;3.70;99.90;;;;;;4965752;28;20042;-77
2021/04/09 00:20:42;;;;;;;14.20;7.97;;;3.70;99.90;;;;;;4982898;28;20074;-78
2021/04/09 00:23:08;;;;;;;12.43;7.60;;;3.80;99.90;;;;;;4983578;28;20178;-77
2021/04/09 00:25:33;;;;;;;11.50;7.43;;;3.70;99.90;;;;;;4983083;28;20054;-77
2021/04/09 00:27:59;;;;;;;13.73;7.63;;;3.70;99.90;;;;;;4983595;28;20031;-78
2021/04/09 00:30:27;;;;;;;13.02;7.93;;;3.70;99.90;;;;;;4966230;28;20074;-77
2021/04/09 00:32:53;;;;;;;15.52;7.78;;;3.70;99.90;;;;;;4983617;28;20561;-77
2021/04/09 00:35:18;;;;;;;12.40;7.97;;;3.60;99.90;;;;;;4967100;28;20031;-77
2021/04/09 00:37:44;;;;;;;12.20;7.38;;;3.60;99.90;;;;;;4965891;28;20470;-77
2021/04/09 00:40:11;;;;;;;13.50;8.07;;;3.60;99.90;;;;;;4966900;28;20039;-78
2021/04/09 00:42:39;;;;;;;16.65;8.40;;;3.60;99.90;;;;;;4975027;28;20106;-78
2021/04/09 00:45:06;;;;;;;10.43;6.65;;;3.60;99.90;;;;;;4999627;28;20034;-77
2021/04/09 00:47:32;;;;;;;12.57;7.75;;;3.60;99.90;;;;;;5027121;28;20517;-77
2021/04/09 00:49:58;;;;;;;11.95;6.40;;;3.60;99.90;;;;;;5027202;28;20096;-77
2021/04/09 00:52:32;;;;;;;12.63;6.78;;;3.50;99.90;;;;;;5010403;28;20109;-78
2021/04/09 00:54:58;;;;;;;12.52;7.05;;;3.50;99.90;;;;;;5027990;28;20029;-77
2021/04/09 00:57:24;;;;;;;13.15;6.53;;;3.50;99.90;;;;;;5010106;28;20061;-77
2021/04/09 00:59:50;;;;;;;12.35;7.30;;;3.50;99.90;;;;;;5026268;28;20086;-78
2021/04/09 01:02:16;;;;;;;12.00;6.38;;;3.50;99.90;;;;;;5008796;28;20040;-77
2021/04/09 01:04:42;;;;;;;13.38;6.75;;;3.40;99.90;;;;;;5027490;28;20054;-77
2021/04/09 01:07:08;;;;;;;9.85;5.90;;;3.40;99.90;;;;;;5027717;28;20505;-78
2021/04/09 01:09:35;;;;;;;9.63;5.88;;;3.50;99.90;;;;;;5037546;28;20045;-77
2021/04/09 01:12:01;;;;;;;9.30;5.68;;;3.50;99.90;;;;;;5047435;28;20049;-77
2021/04/09 01:14:26;;;;;;;15.40;6.93;;;3.50;99.90;;;;;;5066782;28;20029;-77
2021/04/09 01:17:08;;;;;;;12.65;7.53;;;3.50;99.90;;;;;;5067594;28;20037;-77
2021/04/09 01:20:17;;;;;;;14.48;8.30;;;3.50;99.90;;;;;;5049275;28;20093;-78
2021/04/09 01:23:18;;;;;;;10.70;5.82;;;3.50;99.90;;;;;;5017224;28;20050;-77
2021/04/09 01:26:21;;;;;;;12.25;4.65;;;3.50;99.90;;;;;;5046348;28;20029;-78
2021/04/09 01:29:12;;;;;;;12.98;6.88;;;3.40;99.90;;;;;;5047644;28;20025;-78
2021/04/09 01:31:44;;;;;;;14.23;7.47;;;3.50;99.90;;;;;;5056142;28;20037;-78
2021/04/09 01:34:11;;;;;;;14.10;8.95;;;3.40;99.90;;;;;;5043749;28;20084;-77
2021/04/09 01:36:50;;;;;;;16.55;9.60;;;3.40;99.90;;;;;;5048849;28;20050;-77
2021/04/09 01:39:32;;;;;;;18.60;10.68;;;3.50;99.90;;;;;;5040545;28;20038;-78
2021/04/09 01:42:01;;;;;;;18.75;10.15;;;3.50;99.90;;;;;;5013209;28;20025;-77
2021/04/09 01:44:29;;;;;;;18.40;11.23;;;3.40;99.90;;;;;;5042710;28;20044;-77
2021/04/09 01:46:57;;;;;;;16.73;9.68;;;3.50;99.90;;;;;;5047079;28;20038;-78
2021/04/09 01:49:23;;;;;;;18.08;9.32;;;3.50;99.90;;;;;;5045530;28;20056;-78
2021/04/09 01:51:50;;;;;;;20.52;11.85;;;3.50;99.90;;;;;;5046482;28;20049;-77
2021/04/09 01:54:19;;;;;;;19.90;11.82;;;3.50;99.90;;;;;;5052092;28;20056;-77
2021/04/09 01:56:46;;;;;;;21.65;11.02;;;3.40;99.90;;;;;;5063548;28;20038;-78
2021/04/09 01:59:13;;;;;;;17.23;10.45;;;3.50;99.90;;;;;;5028766;28;20041;-77
2021/04/09 02:01:39;;;;;;;18.80;10.32;;;3.40;99.90;;;;;;5045584;28;20037;-78
2021/04/09 02:04:06;;;;;;;17.33;9.50;;;3.50;99.90;;;;;;5065571;28;20029;-78
2021/04/09 02:06:34;;;;;;;18.23;9.75;;;3.40;99.90;;;;;;5066233;28;20031;-77
2021/04/09 02:09:01;;;;;;;17.08;8.48;;;3.40;99.90;;;;;;5039328;28;20060;-78
2021/04/09 02:11:28;;;;;;;15.15;8.15;;;3.40;99.90;;;;;;5046603;28;20441;-78
2021/04/09 02:13:54;;;;;;;11.40;7.43;;;3.40;99.90;;;;;;5045207;28;20055;-78
2021/04/09 02:16:21;;;;;;;12.95;7.93;;;3.50;99.90;;;;;;5046516;28;20038;-77
2021/04/09 02:18:47;;;;;;;17.13;7.47;;;3.50;99.90;;;;;;5045528;28;20113;-77
2021/04/09 02:21:13;;;;;;;12.00;6.80;;;3.50;99.90;;;;;;5044424;28;20025;-78
2021/04/09 02:23:39;;;;;;;15.50;6.75;;;3.40;99.90;;;;;;5026744;28;20037;-78
2021/04/09 02:26:04;;;;;;;10.38;5.60;;;3.30;99.90;;;;;;5028691;28;20053;-77
2021/04/09 02:28:30;;;;;;;11.25;5.97;;;3.30;99.90;;;;;;5028506;28;20033;-77
2021/04/09 02:31:05;;;;;;;11.23;6.38;;;3.40;99.90;;;;;;5045788;28;20041;-77
2021/04/09 02:33:35;;;;;;;11.50;5.85;;;3.40;99.90;;;;;;5028328;28;20393;-78
2021/04/09 02:36:11;;;;;;;;;;;3.40;99.90;;;;;;5046339;28;20034;-78
2021/04/09 02:38:39;;;;;;;12.38;6.28;;;3.40;99.90;;;;;;5044777;28;19984;-77
2021/04/09 02:41:06;;;;;;;9.30;5.18;;;3.50;99.90;;;;;;5027960;28;20038;-78
2021/04/09 02:43:32;;;;;;;10.85;6.25;;;3.40;99.90;;;;;;5028107;28;20049;-78
2021/04/09 02:45:58;;;;;;;13.23;6.05;;;3.50;99.90;;;;;;5025623;28;20072;-78
2021/04/09 02:48:32;;;;;;;11.05;5.90;;;3.50;99.90;;;;;;5045134;28;20033;-77
2021/04/09 02:51:02;;;;;;;12.10;7.13;;;3.50;99.90;;;;;;5027810;28;20033;-77
2021/04/09 02:53:30;;;;;;;10.77;5.60;;;3.60;99.90;;;;;;5028296;28;20066;-77
2021/04/09 02:55:56;;;;;;;7.93;4.78;;;3.50;99.90;;;;;;5045777;28;20507;-78
2021/04/09 02:58:24;;;;;;;9.40;5.43;;;3.50;99.90;;;;;;5027690;28;20306;-77
2021/04/09 03:00:52;;;;;;;8.93;6.00;;;3.50;99.90;;;;;;5044504;28;20065;-77
2021/04/09 03:03:20;;;;;;;10.75;5.63;;;3.50;99.90;;;;;;5011573;28;20044;-77
2021/04/09 03:06:09;;;;;;;14.57;5.25;;;3.50;99.90;;;;;;5045089;28;20030;-78
2021/04/09 03:08:35;;;;;;;11.50;5.45;;;3.50;99.90;;;;;;4992050;28;20109;-78
2021/04/09 03:11:02;;;;;;;9.80;5.22;;;3.60;99.90;;;;;;4986909;28;20057;-77
2021/04/09 03:13:29;;;;;;;9.27;5.65;;;3.70;99.90;;;;;;4969200;28;20036;-78
2021/04/09 03:15:58;;;;;;;10.60;5.60;;;3.60;99.90;;;;;;4983010;28;20035;-78
2021/04/09 03:18:25;;;;;;;8.10;4.93;;;3.60;99.90;;;;;;4984114;28;20034;-77
2021/04/09 03:20:54;;;;;;;12.25;5.80;;;3.60;99.90;;;;;;4964319;29;20051;-78
2021/04/09 03:23:20;;;;;;;8.35;4.47;;;3.60;99.90;;;;;;4989145;28;20049;-78
2021/04/09 03:25:46;;;;;;;9.88;5.35;;;3.60;99.90;;;;;;5003717;28;20042;-78
2021/04/09 03:28:11;;;;;;;7.32;4.60;;;3.60;99.90;;;;;;5002855;28;20086;-77
2021/04/09 03:30:38;;;;;;;11.07;5.05;;;3.60;99.90;;;;;;5002918;28;20602;-77
2021/04/09 03:33:04;;;;;;;10.43;5.80;;;3.70;99.90;;;;;;5003345;28;20124;-78
2021/04/09 03:35:30;;;;;;;10.52;4.70;;;3.70;99.90;;;;;;4975209;28;20027;-77
2021/04/09 03:37:55;;;;;;;10.80;5.18;;;3.70;99.90;;;;;;4989189;28;20041;-78
2021/04/09 03:40:21;;;;;;;10.48;4.88;;;3.70;99.90;;;;;;5002303;28;20117;-78
2021/04/09 03:42:47;;;;;;;12.52;5.47;;;3.90;99.90;;;;;;4983565;28;20052;-78
2021/04/09 03:45:13;;;;;;;8.00;4.70;;;3.90;99.90;;;;;;4999012;28;20105;-78
2021/04/09 03:47:39;;;;;;;9.80;5.20;;;3.90;99.90;;;;;;5007398;28;20022;-78
2021/04/09 03:50:06;;;;;;;9.70;5.32;;;3.90;99.90;;;;;;5024572;28;20498;-78
2021/04/09 03:52:31;;;;;;;11.23;4.97;;;3.90;99.90;;;;;;5024843;28;20069;-78
2021/04/09 03:54:57;;;;;;;10.45;4.38;;;3.80;99.90;;;;;;5025152;28;20029;-78
2021/04/09 03:57:23;;;;;;;10.05;4.35;;;3.80;99.90;;;;;;5025200;28;20082;-78
2021/04/09 03:59:49;;;;;;;10.32;4.20;;;3.80;99.90;;;;;;5024299;28;20026;-77
2021/04/09 04:02:14;;;;;;;7.85;4.63;;;3.80;99.90;;;;;;5007119;28;20034;-78
2021/04/09 04:04:40;;;;;;;6.25;3.13;;;3.90;99.90;;;;;;5024742;28;20030;-78
2021/04/09 04:07:06;;;;;;;8.63;3.80;;;3.90;99.90;;;;;;5024953;28;20104;-78
2021/04/09 04:09:31;;;;;;;11.73;4.57;;;3.90;99.90;;;;;;5000920;28;20493;-78
2021/04/09 04:11:58;;;;;;;13.55;5.28;;;3.90;99.90;;;;;;5043944;28;20029;-77
2021/04/09 04:14:23;;;;;;;10.98;5.32;;;3.90;99.90;;;;;;5026544;28;20141;-77
2021/04/09 04:16:49;;;;;;;8.00;4.80;;;3.90;99.90;;;;;;5043708;28;20470;-78
2021/04/09 04:19:17;;;;;;;10.45;4.40;;;3.90;99.90;;;;;;5043890;28;20044;-77
2021/04/09 04:21:42;;;;;;;8.98;5.13;;;3.80;99.90;;;;;;5043369;28;20037;-78
2021/04/09 04:24:08;;;;;;;9.63;4.68;;;3.80;99.90;;;;;;5044165;28;20035;-78
2021/04/09 04:26:34;;;;;;;8.82;5.15;;;3.80;99.90;;;;;;5043157;28;20101;-78
2021/04/09 04:29:00;;;;;;;11.02;4.78;;;3.70;99.90;;;;;;5044344;28;20049;-78
2021/04/09 04:31:26;;;;;;;10.05;4.53;;;3.70;99.90;;;;;;5044642;28;20029;-78
2021/04/09 04:33:54;;;;;;;11.27;5.47;;;3.70;99.90;;;;;;5041662;28;20469;-78
2021/04/09 04:36:20;;;;;;;10.52;4.57;;;3.70;99.90;;;;;;5042926;28;20025;-78
2021/04/09 04:38:48;;;;;;;10.68;5.18;;;3.60;99.90;;;;;;5043762;28;20034;-78
2021/04/09 04:41:18;;;;;;;9.75;5.00;;;3.70;99.90;;;;;;5027442;28;20030;-78
2021/04/09 04:43:43;;;;;;;10.27;5.32;;;3.70;99.90;;;;;;5046203;28;20025;-78
2021/04/09 04:46:09;;;;;;;10.75;4.72;;;3.70;99.90;;;;;;5045035;28;20048;-78
2021/04/09 04:48:35;;;;;;;10.82;5.55;;;3.60;99.90;;;;;;5039917;28;20052;-78
2021/04/09 04:51:00;;;;;;;7.05;3.95;;;3.60;99.90;;;;;;5007945;28;20101;-78
2021/04/09 04:53:26;;;;;;;9.73;4.43;;;3.60;99.90;;;;;;5026503;28;20072;-78
2021/04/09 04:55:52;;;;;;;9.60;5.25;;;3.50;99.90;;;;;;5035203;28;20089;-78
2021/04/09 04:58:18;;;;;;;9.60;4.80;;;3.50;99.90;;;;;;5026631;28;20030;-78
2021/04/09 05:00:44;;;;;;;7.90;4.35;;;3.50;99.90;;;;;;5025980;28;20045;-78
2021/04/09 05:03:12;;;;;;;11.50;5.20;;;3.40;99.90;;;;;;5044199;28;20047;-78
2021/04/09 05:05:38;;;;;;;7.07;3.95;;;3.40;99.90;;;;;;5043818;28;20038;-78
2021/04/09 05:08:04;;;;;;;8.90;4.25;;;3.40;99.90;;;;;;5043682;28;20103;-78
2021/04/09 05:10:30;;;;;;;10.27;4.75;;;3.40;99.90;;;;;;5043144;28;20512;-77
2021/04/09 05:12:55;;;;;;;7.45;4.13;;;3.40;99.90;;;;;;5035385;28;20037;-78
2021/04/09 05:15:21;;;;;;;9.77;4.60;;;3.40;99.90;;;;;;5043876;28;20033;-78
2021/04/09 05:17:47;;;;;;;8.38;4.45;;;3.40;99.90;;;;;;5051832;28;20043;-77
2021/04/09 05:20:13;;;;;;;14.52;5.57;;;3.40;99.90;;;;;;5065378;28;20029;-78
2021/04/09 05:22:39;;;;;;;8.98;4.78;;;3.40;99.90;;;;;;5047503;28;20029;-78
2021/04/09 05:25:05;;;;;;;9.23;4.82;;;3.40;99.90;;;;;;5067838;28;20040;-78
2021/04/09 05:27:31;;;;;;;7.90;4.78;;;3.30;99.90;;;;;;5049550;28;20029;-80
2021/04/09 05:29:56;;;;;;;9.68;4.85;;;3.40;99.90;;;;;;5033900;28;20041;-80
2021/04/09 05:32:22;;;;;;;11.98;4.80;;;3.40;99.90;;;;;;5044245;28;20147;-79
2021/04/09 05:34:48;;;;;;;10.02;5.45;;;3.40;99.90;;;;;;5046057;28;20029;-80
2021/04/09 05:37:13;;;;;;;8.23;4.18;;;3.40;99.90;;;;;;5029348;28;20029;-79
2021/04/09 05:39:39;;;;;;;9.48;4.45;;;3.50;99.90;;;;;;5029535;28;20037;-79
2021/04/09 05:42:05;;;;;;;14.35;5.53;;;3.50;99.90;;;;;;5013104;28;20029;-79
2021/04/09 05:44:34;;;;;;;9.63;4.70;;;3.50;99.90;;;;;;5046625;28;20048;-79
2021/04/09 05:47:02;;;;;;;9.15;5.13;;;3.60;99.90;;;;;;5012941;28;20037;-79
2021/04/09 05:49:27;;;;;;;11.13;5.72;;;3.60;99.90;;;;;;5012666;28;20051;-80
2021/04/09 05:51:53;;;;;;;12.80;5.13;;;3.60;99.90;;;;;;5029162;28;20041;-80
2021/04/09 05:54:18;;;;;;;10.55;6.45;;;3.70;99.90;;;;;;5047104;28;20136;-79
2021/04/09 05:56:44;;;;;;;13.18;5.85;;;3.70;99.90;;;;;;5013028;28;20040;-79
2021/04/09 05:59:09;;;;;;;9.68;5.45;;;3.70;99.90;;;;;;5046878;28;20025;-79
2021/04/09 06:01:35;;;;;;;6.88;3.92;;;3.80;99.90;;;;;;5046912;28;20084;-79
2021/04/09 06:04:01;;;;;;;10.57;4.72;;;3.80;99.90;;;;;;5046986;28;20136;-79
2021/04/09 06:06:26;;;;;;;12.20;5.97;;;3.80;99.90;;;;;;5063275;28;20998;-79
2021/04/09 06:08:52;;;;;;;11.40;6.00;;;3.90;99.90;;;;;;5046628;28;20045;-79
2021/04/09 06:11:18;;;;;;;17.20;6.63;;;3.90;99.90;;;;;;5064836;28;20122;-79
2021/04/09 06:13:43;;;;;;;13.32;6.22;;;4.10;99.90;;;;;;5066681;28;20028;-79
2021/04/09 06:16:09;;;;;;;7.32;4.10;;;4.10;99.90;;;;;;5031824;28;20399;-79
2021/04/09 06:18:34;;;;;;;9.57;5.57;;;4.20;99.90;;;;;;5066695;28;20025;-79
2021/04/09 06:21:00;;;;;;;11.40;5.95;;;4.30;99.90;;;;;;5065200;28;20033;-79
2021/04/09 06:23:26;;;;;;;15.27;5.80;;;4.40;99.90;;;;;;5048551;28;20083;-79
2021/04/09 06:25:51;;;;;;;10.15;5.13;;;4.50;99.90;;;;;;5066450;28;20056;-80
2021/04/09 06:28:17;;;;;;;10.20;5.18;;;4.60;99.90;;;;;;5048517;28;20045;-79
2021/04/09 06:30:43;;;;;;;12.32;4.32;;;4.70;99.90;;;;;;5048485;28;20047;-79
2021/04/09 06:33:09;;;;;;;11.60;5.30;;;4.80;99.90;;;;;;5048648;28;20037;-79
2021/04/09 06:35:34;;;;;;;12.10;5.63;;;5.00;99.90;;;;;;5064125;28;20039;-80
2021/04/09 06:38:00;;;;;;;10.50;5.05;;;5.10;99.90;;;;;;5048366;28;20036;-80
2021/04/09 06:40:27;;;;;;;8.80;4.90;;;5.30;99.90;;;;;;5031658;28;20058;-80
2021/04/09 06:42:54;;;;;;;8.38;4.97;;;5.50;99.90;;;;;;5046192;28;20043;-80
2021/04/09 06:45:20;;;;;;;13.13;6.35;;;5.60;99.90;;;;;;5048221;28;20503;-80
2021/04/09 06:47:45;;;;;;;11.43;5.38;;;5.80;99.90;;;;;;5048167;28;20021;-80
2021/04/09 06:50:11;;;;;;;9.40;4.90;;;5.90;99.90;;;;;;5048195;28;20368;-80
2021/04/09 06:52:38;;;;;;;12.05;6.53;;;5.90;99.90;;;;;;5047926;28;20543;-80
2021/04/09 06:55:04;;;;;;;12.27;5.65;;;6.10;99.90;;;;;;5064825;28;20029;-80
2021/04/09 06:57:34;;;;;;;10.15;5.95;;;6.20;99.90;;;;;;5048013;28;20029;-80
2021/04/09 07:00:05;;;;;;;13.00;6.00;;;6.30;99.90;;;;;;5005064;28;20056;-79
2021/04/09 07:02:31;;;;;;;9.15;5.40;;;6.50;99.90;;;;;;5056667;28;20441;-79
2021/04/09 07:04:57;;;;;;;10.93;5.85;;;6.50;99.90;;;;;;5062925;28;20025;-79
2021/04/09 07:07:23;;;;;;;10.40;5.53;;;6.60;99.90;;;;;;5069349;22;20076;-79
2021/04/09 07:09:49;;;;;;;11.27;6.18;;;6.70;99.90;;;;;;5044923;28;20037;-80
2021/04/09 07:12:29;;;;;;;11.00;6.53;;;6.90;99.90;;;;;;5043273;28;20041;-79
2021/04/09 07:14:59;;;;;;;12.25;6.88;;;7.00;99.90;;;;;;5047101;28;20032;-79
2021/04/09 07:17:46;;;;;;;11.00;5.80;;;6.90;99.90;;;;;;5046103;28;20048;-79
2021/04/09 07:20:21;;;;;;;9.82;4.88;;;7.00;99.90;;;;;;5044292;28;20024;-80
2021/04/09 07:23:13;;;;;;;11.80;5.18;;;7.20;99.90;;;;;;5047412;28;20033;-79
2021/04/09 07:25:45;;;;;;;10.82;6.30;;;7.40;99.90;;;;;;5041817;28;20033;-80
2021/04/09 07:28:19;;;;;;;10.75;6.43;;;7.30;99.90;;;;;;5043410;28;20037;-79
2021/04/09 07:30:56;;;;;;;15.13;8.00;;;7.40;99.90;;;;;;5023206;28;20029;-80
2021/04/09 07:33:26;;;;;;;8.20;5.47;;;7.40;99.90;;;;;;5046519;28;20057;-79
2021/04/09 07:35:58;;;;;;;12.23;6.03;;;7.60;99.90;;;;;;5038333;28;20017;-80
2021/04/09 07:38:26;;;;;;;11.60;5.88;;;7.40;99.90;;;;;;5042845;28;20082;-82
2021/04/09 07:41:03;;;;;;;8.27;4.85;;;7.80;99.90;;;;;;5026003;28;20021;-79
2021/04/09 07:43:30;;;;;;;8.73;5.68;;;7.90;99.90;;;;;;5029543;28;20031;-79
2021/04/09 07:46:00;;;;;;;6.63;4.13;;;8.00;99.90;;;;;;5054882;28;20031;-79
2021/04/09 07:48:39;;;;;;;8.82;4.80;;;8.00;99.90;;;;;;5046120;28;20104;-79
2021/04/09 07:51:07;;;;;;;10.90;4.70;;;8.50;99.90;;;;;;5037117;28;20041;-79
2021/04/09 07:53:32;;;;;;;7.50;4.43;;;8.50;99.90;;;;;;5044315;28;20028;-80
2021/04/09 07:56:09;;;;;;;11.07;5.40;;;8.60;99.90;;;;;;5043340;28;20533;-80
2021/04/09 07:58:36;;;;;;;6.97;4.70;;;8.90;99.90;;;;;;5021581;28;20029;-80
2021/04/09 08:01:23;;;;;;;10.30;6.15;;;9.10;99.90;;;;;;5036570;28;20052;-80
2021/04/09 08:03:49;;;;;;;12.38;5.07;;;8.90;99.90;;;;;;5044663;28;20052;-80
2021/04/09 08:06:19;;;;;;;8.43;4.65;;;9.00;99.90;;;;;;5038308;28;20055;-79
2021/04/09 08:08:57;;;;;;;9.43;4.72;;;9.00;99.90;;;;;;5072513;28;20052;-78
2021/04/09 08:11:27;;;;;;;9.65;4.35;;;9.10;99.90;;;;;;5056641;28;20048;-79
2021/04/09 08:14:14;;;;;;;8.77;3.70;;;9.00;99.90;;;;;;5041070;28;20036;-79
2021/04/09 08:16:41;;;;;;;8.02;5.15;;;9.20;99.90;;;;;;5069344;28;20392;-80
2021/04/09 08:19:18;;;;;;;8.90;4.78;;;9.00;99.90;;;;;;5030250;28;20029;-79
2021/04/09 08:21:58;;;;;;;8.90;4.68;;;8.90;99.90;;;;;;5029727;28;20101;-80
2021/04/09 08:24:31;;;;;;;9.38;5.50;;;9.00;99.90;;;;;;5029710;28;20108;-80
2021/04/09 08:26:57;;;;;;;7.28;4.03;;;9.40;99.90;;;;;;5046632;28;20060;-79
2021/04/09 08:29:24;;;;;;;5.97;3.90;;;9.50;99.90;;;;;;5046726;28;20036;-79
2021/04/09 08:31:51;;;;;;;7.40;4.07;;;9.30;99.90;;;;;;5029829;28;20104;-80
2021/04/09 08:34:19;;;;;;;7.95;3.80;;;9.40;99.90;;;;;;5030207;28;20025;-80
2021/04/09 08:36:46;;;;;;;5.75;3.38;;;9.50;99.90;;;;;;5046385;28;20033;-80
2021/04/09 08:39:14;;;;;;;8.50;4.13;;;9.40;99.90;;;;;;5046806;28;20036;-80
2021/04/09 08:41:42;;;;;;;6.90;4.43;;;9.10;99.90;;;;;;5050615;28;20092;-80
2021/04/09 08:44:09;;;;;;;7.40;4.13;;;8.90;99.90;;;;;;5084502;28;20029;-80
2021/04/09 08:46:35;;;;;;;8.15;4.10;;;9.00;99.90;;;;;;5084479;28;20028;-80
2021/04/09 08:49:01;;;;;;;5.25;3.20;;;9.00;99.90;;;;;;5050056;28;20469;-80
2021/04/09 08:51:28;;;;;;;7.25;4.28;;;9.00;99.90;;;;;;5067557;28;20040;-80
2021/04/09 08:53:54;;;;;;;9.25;4.43;;;9.00;99.90;;;;;;5049793;28;20121;-80
2021/04/09 08:56:34;;;;;;;7.47;4.28;;;9.00;99.90;;;;;;5066438;28;20048;-80
2021/04/09 08:59:00;;;;;;;9.85;4.45;;;9.00;99.90;;;;;;5052985;28;20029;-80
2021/04/09 09:01:25;;;;;;;7.13;4.38;;;9.30;99.90;;;;;;5088206;28;20030;-80
2021/04/09 09:03:51;;;;;;;7.20;3.03;;;9.40;99.90;;;;;;5086753;28;20024;-80
2021/04/09 09:06:16;;;;;;;4.78;2.53;;;9.60;99.90;;;;;;5033905;28;20088;-80
2021/04/09 09:08:42;;;;;;;5.05;2.50;;;9.70;99.90;;;;;;5030086;28;20051;-80
2021/04/09 09:11:09;;;;;;;5.65;2.22;;;9.70;99.90;;;;;;5030073;28;20037;-80
2021/04/09 09:13:45;;;;;;;5.63;2.97;;;9.90;99.90;;;;;;5013951;28;20493;-80
2021/04/09 09:16:16;;;;;;;4.30;2.28;;;10.00;99.90;;;;;;5013699;28;20057;-80
2021/04/09 09:18:43;;;;;;;5.50;2.25;;;10.00;99.90;;;;;;5013713;28;20032;-80
2021/04/09 09:21:10;;;;;;;6.55;2.28;;;10.20;99.90;;;;;;5030223;28;20025;-80
2021/04/09 09:23:49;;;;;;;4.53;1.83;;;10.40;99.90;;;;;;5046594;28;20037;-80
2021/04/09 09:26:23;;;;;;;4.38;2.35;;;10.70;99.90;;;;;;5046567;28;20037;-80
2021/04/09 09:29:11;;;;;;;4.57;2.25;;;11.00;99.90;;;;;;5013572;28;20087;-80
2021/04/09 09:31:41;;;;;;;4.38;2.63;;;11.10;99.90;;;;;;5046298;28;20041;-80
2021/04/09 09:34:26;;;;;;;3.30;2.05;;;11.20;99.90;;;;;;5046305;28;20465;-80
2021/04/09 09:37:08;;;;;;;4.85;1.98;;;11.30;99.90;;;;;;5029826;28;20033;-80
2021/04/09 09:39:58;;;;;;;6.15;2.33;;;11.40;99.90;;;;;;5029880;28;20037;-80
2021/04/09 09:42:26;;;;;;;5.10;1.80;;;11.10;99.90;;;;;;5055958;28;20026;-80
2021/04/09 09:44:56;;;;;;;5.45;2.22;;;11.10;99.90;;;;;;5049508;28;20182;-80
2021/04/09 09:47:31;;;;;;;4.75;2.03;;;11.00;99.90;;;;;;5049200;28;20025;-80
2021/04/09 09:50:12;;;;;;;3.85;2.35;;;11.20;99.90;;;;;;5049261;28;20068;-80
2021/04/09 09:53:05;;;;;;;4.85;1.95;;;11.00;99.90;;;;;;5049204;28;20048;-80
2021/04/09 09:55:40;;;;;;;6.25;2.85;;;11.00;99.90;;;;;;5049527;28;20029;-80
2021/04/09 09:58:11;;;;;;;4.50;2.20;;;10.90;99.90;;;;;;5049091;28;20136;-80
2021/04/09 10:00:39;;;;;;;6.18;2.22;;;10.80;99.90;;;;;;5032530;28;20033;-80
2021/04/09 10:03:18;;;;;;;3.92;1.73;;;10.90;99.90;;;;;;5048844;28;20029;-80
2021/04/09 10:05:53;;;;;;;7.75;2.90;;;11.20;99.90;;;;;;5048848;28;20029;-80
2021/04/09 10:08:20;;;;;;;7.80;2.80;;;11.00;99.90;;;;;;5032550;28;20041;-80
2021/04/09 10:10:50;;;;;;;6.68;3.13;;;10.70;99.90;;;;;;5048019;28;20036;-80
2021/04/09 10:13:22;;;;;;;6.57;3.38;;;10.70;99.90;;;;;;5048930;28;20038;-80
2021/04/09 10:15:49;;;;;;;7.55;3.10;;;10.70;99.90;;;;;;5049092;28;20044;-80
2021/04/09 10:18:16;;;;;;;5.22;3.00;;;10.90;99.90;;;;;;5048698;28;20405;-80
2021/04/09 10:20:42;;;;;;;7.30;4.35;;;11.10;99.90;;;;;;5032371;28;20025;-80
2021/04/09 10:23:08;;;;;;;6.32;2.83;;;11.00;99.90;;;;;;5032131;28;20051;-80
2021/04/09 10:25:35;;;;;;;5.30;2.97;;;10.90;99.90;;;;;;5048851;28;20037;-80
2021/04/09 10:28:04;;;;;;;4.93;3.25;;;11.20;99.90;;;;;;5033445;28;20089;-80
2021/04/09 10:30:31;;;;;;;6.85;3.75;;;11.70;99.90;;;;;;5051850;28;20043;-80
2021/04/09 10:32:57;;;;;;;4.22;2.85;;;12.30;99.90;;;;;;5051130;28;20040;-80
2021/04/09 10:35:28;;;;;;;8.35;3.03;;;12.80;99.90;;;;;;5068458;28;20029;-80
2021/04/09 10:38:08;;;;;;;5.13;2.90;;;12.60;99.90;;;;;;5051919;28;20044;-80
2021/04/09 10:40:34;;;;;;;6.93;2.42;;;12.20;99.90;;;;;;5051809;28;20044;-80
2021/04/09 10:43:01;;;;;;;3.78;2.10;;;12.10;99.90;;;;;;5068215;28;20040;-79
2021/04/09 10:45:27;;;;;;;3.88;1.98;;;12.10;99.90;;;;;;5068549;28;20032;-80
2021/04/09 10:47:54;;;;;;;5.68;2.45;;;12.20;99.90;;;;;;5051482;28;20028;-81
2021/04/09 10:50:20;;;;;;;4.55;2.15;;;11.90;99.90;;;;;;5051652;28;20043;-80
2021/04/09 10:52:46;;;;;;;4.18;1.38;;;11.40;99.90;;;;;;5051409;28;20044;-80
2021/04/09 10:55:12;;;;;;;6.15;2.83;;;11.60;99.90;;;;;;5051713;28;20047;-80
2021/04/09 10:57:37;;;;;;;4.18;1.77;;;11.40;99.90;;;;;;5068171;28;20032;-80
2021/04/09 11:00:04;;;;;;;4.15;1.55;;;11.20;99.90;;;;;;5051518;28;20033;-80
2021/04/09 11:02:33;;;;;;;8.95;1.98;;;11.40;99.90;;;;;;5051165;28;20059;-80
2021/04/09 11:05:00;;;;;;;4.85;1.73;;;11.80;99.90;;;;;;5051190;28;20063;-80
2021/04/09 11:07:47;;;;;;;7.65;1.98;;;12.10;99.90;;;;;;5061629;28;20048;-80
2021/04/09 11:10:29;;;;;;;4.85;2.13;;;12.60;99.90;;;;;;5031546;28;20123;-80
2021/04/09 11:12:54;;;;;;;2.97;1.50;;;12.80;99.90;;;;;;5031101;28;20037;-80
2021/04/09 11:15:20;;;;;;;3.30;1.83;;;13.40;99.90;;;;;;5031307;28;20048;-81
2021/04/09 11:17:58;;;;;;;3.92;1.65;;;13.00;99.90;;;;;;5031343;28;20096;-80
2021/04/09 11:20:30;;;;;;;3.45;1.42;;;12.50;99.90;;;;;;5047395;28;20029;-80
2021/04/09 11:23:15;;;;;;;3.50;1.85;;;12.30;99.90;;;;;;5047588;28;20463;-80
2021/04/09 11:25:47;;;;;;;3.38;1.40;;;12.90;99.90;;;;;;5047503;28;20033;-80
2021/04/09 11:28:31;;;;;;;3.47;1.63;;;13.00;99.90;;;;;;5030905;28;20101;-80
2021/04/09 11:31:05;;;;;;;3.97;1.52;;;13.10;99.90;;;;;;5047320;28;20029;-80
2021/04/09 11:33:35;;;;;;;4.18;1.10;;;12.90;99.90;;;;;;5047154;28;20033;-80
2021/04/09 11:36:20;;;;;;;3.28;1.63;;;13.40;99.90;;;;;;5047272;28;20091;-81
2021/04/09 11:38:47;;;;;;;3.63;0.80;;;12.30;99.90;;;;;;5030672;28;20080;-80
2021/04/09 11:41:30;;;;;;;4.55;1.75;;;13.30;99.90;;;;;;5030494;28;20100;-80
2021/04/09 11:43:56;;;;;;;3.28;1.55;;;13.60;99.90;;;;;;5030719;28;20036;-80
2021/04/09 11:46:32;;;;;;;3.60;0.90;;;13.20;99.90;;;;;;5047116;28;20021;-81
2021/04/09 11:49:00;;;;;;;2.47;1.10;;;12.60;99.90;;;;;;5050711;28;20393;-80
2021/04/09 11:51:26;;;;;;;1.63;0.80;;;12.30;99.90;;;;;;5046974;28;20076;-80
2021/04/09 11:54:10;;;;;;;6.28;1.45;;;12.50;99.90;;;;;;5030602;28;20039;-80
2021/04/09 11:56:48;;;;;;;2.72;1.13;;;12.20;99.90;;;;;;5047297;28;20029;-80
2021/04/09 11:59:16;;;;;;;3.10;1.20;;;12.40;99.90;;;;;;5047198;28;20036;-80
2021/04/09 12:01:44;;;;;;;6.95;1.08;;;12.10;99.90;;;;;;5046068;28;20032;-80
2021/04/09 12:04:36;;;;;;;3.28;1.05;;;12.20;99.90;;;;;;5043387;28;20040;-80
2021/04/09 12:07:04;;;;;;;3.75;0.90;;;12.00;99.90;;;;;;5064871;28;20045;-80
2021/04/09 12:09:30;;;;;;;2.53;0.75;;;12.30;99.90;;;;;;4996495;28;20064;-80
2021/04/09 12:11:57;;;;;;;3.40;1.27;;;12.00;99.90;;;;;;5048068;28;20049;-80
2021/04/09 12:14:39;;;;;;;2.65;0.90;;;12.00;99.90;;;;;;5043497;28;20033;-79
2021/04/09 12:17:05;;;;;;;3.10;0.80;;;12.40;99.90;;;;;;5061135;28;20031;-80
2021/04/09 12:19:31;;;;;;;2.92;1.00;;;12.50;99.90;;;;;;5042837;28;20059;-80
2021/04/09 12:21:57;;;;;;;2.63;1.20;;;12.70;99.90;;;;;;5047454;28;20032;-79
2021/04/09 12:24:23;;;;;;;2.72;0.80;;;13.10;99.90;;;;;;5043457;28;20048;-79
2021/04/09 12:26:49;;;;;;;1.70;0.80;;;13.40;99.90;;;;;;5045771;28;20511;-79
2021/04/09 12:29:15;;;;;;;4.55;0.95;;;13.20;99.90;;;;;;5044414;28;20025;-79
2021/04/09 12:31:41;;;;;;;2.42;1.20;;;12.50;99.90;;;;;;5030811;28;20045;-79
2021/04/09 12:34:06;;;;;;;5.68;1.15;;;12.80;99.90;;;;;;5045957;28;20025;-79
2021/04/09 12:36:36;;;;;;;3.45;1.20;;;12.50;99.90;;;;;;5046608;28;20044;-79
2021/04/09 12:39:05;;;;;;;1.73;0.80;;;12.90;99.90;;;;;;5046593;28;20048;-79
2021/04/09 12:41:31;;;;;;;2.47;0.90;;;12.90;99.90;;;;;;5049575;28;20033;-79
2021/04/09 12:43:56;;;;;;;2.08;0.90;;;12.30;99.90;;;;;;5051189;28;20052;-80
2021/04/09 12:46:22;;;;;;;3.40;0.82;;;12.70;99.90;;;;;;5046685;28;20025;-79
2021/04/09 12:48:48;;;;;;;1.98;0.80;;;13.00;99.90;;;;;;5067481;28;20025;-79
2021/04/09 12:51:13;;;;;;;2.17;0.80;;;13.30;99.90;;;;;;5035376;28;20045;-80
2021/04/09 12:53:39;;;;;;;1.17;0.57;;;13.60;99.90;;;;;;5047978;28;20036;-79
2021/04/09 12:56:05;;;;;;;3.92;0.50;;;14.00;99.90;;;;;;5052299;28;20029;-79
2021/04/09 12:58:31;;;;;;;1.90;0.38;;;14.20;99.90;;;;;;5069286;28;20470;-79
2021/04/09 13:00:56;;;;;;;1.15;0.40;;;13.70;99.90;;;;;;5056513;28;20025;-80